Time;durP1;ratioP1;P1;durP2;ratioP2;P2;SDS_P1;SDS_P2;PMS_P1;PMS_P2;Temp;Humidity;BMP_temperature;BMP_pressure;BME280_temperature;BME280_humidity;BME280_pressure;Samples;Min_cycle;Max_cycle;Signal;HPM_P1;HPM_P2
2023/06/29 00:02:24;;;;;;;4.20;2.00;;;;;;;;;;5095320;28;20261;-73
2023/06/29 00:04:50;;;;;;;4.00;1.80;;;;;;;;;;5095642;28;20256;-73
2023/06/29 00:07:15;;;;;;;3.13;1.85;;;;;;;;;;5096207;28;20027;-73
2023/06/29 00:09:40;;;;;;;3.43;1.90;;;;;;;;;;5097983;28;20032;-74
2023/06/29 00:12:06;;;;;;;5.60;2.27;;;;;;;;;;5096611;28;20340;-74
2023/06/29 00:14:32;;;;;;;4.45;1.80;;;;;;;;;;5095376;28;20347;-73
2023/06/29 00:16:57;;;;;;;4.00;2.10;;;;;;;;;;5095405;28;20475;-73
2023/06/29 00:19:22;;;;;;;3.03;1.67;;;;;;;;;;5095794;28;20728;-74
2023/06/29 00:21:48;;;;;;;2.30;1.83;;;;;;;;;;5095403;28;20735;-73
2023/06/29 00:24:14;;;;;;;4.43;2.00;;;;;;;;;;5095611;28;20754;-73
2023/06/29 00:26:39;;;;;;;5.57;1.90;;;;;;;;;;5095505;28;20024;-74
2023/06/29 00:29:05;;;;;;;2.90;1.73;;;;;;;;;;5095098;28;20032;-74
2023/06/29 00:31:30;;;;;;;3.67;2.17;;;;;;;;;;5093738;28;20020;-73
2023/06/29 00:33:55;;;;;;;6.53;1.73;;;;;;;;;;5094922;28;20027;-72
2023/06/29 00:36:21;;;;;;;4.93;1.87;;;;;;;;;;5094759;28;20075;-73
2023/06/29 00:38:46;;;;;;;4.80;1.80;;;;;;;;;;5094699;28;20268;-74
2023/06/29 00:41:11;;;;;;;3.85;1.92;;;;;;;;;;5095000;28;20080;-74
2023/06/29 00:43:37;;;;;;;3.83;1.70;;;;;;;;;;5094915;28;20016;-74
2023/06/29 00:46:07;;;;;;;3.85;2.03;;;;;;;;;;5093589;28;20252;-74
2023/06/29 00:48:33;;;;;;;3.60;1.70;;;;;;;;;;5095031;28;20418;-74
2023/06/29 00:50:59;;;;;;;4.15;2.00;;;;;;;;;;5095095;28;20401;-74
2023/06/29 00:53:24;;;;;;;3.97;2.00;;;;;;;;;;5094762;28;20121;-74
2023/06/29 00:55:49;;;;;;;2.97;1.83;;;;;;;;;;5095027;28;20387;-74
2023/06/29 00:58:14;;;;;;;4.07;1.98;;;;;;;;;;5094503;28;20095;-74
2023/06/29 01:00:40;;;;;;;4.07;1.90;;;;;;;;;;5093770;28;20471;-74
2023/06/29 01:03:05;;;;;;;2.50;1.70;;;;;;;;;;5094382;28;20758;-74
2023/06/29 01:05:33;;;;;;;3.42;1.83;;;;;;;;;;5094729;28;20728;-74
2023/06/29 01:08:08;;;;;;;5.47;1.83;;;;;;;;;;5094147;28;20032;-73
2023/06/29 01:10:34;;;;;;;5.32;1.98;;;;;;;;;;5094490;28;20028;-74
2023/06/29 01:13:02;;;;;;;4.32;1.92;;;;;;;;;;5094146;28;20043;-74
2023/06/29 01:15:28;;;;;;;2.47;1.67;;;;;;;;;;5094765;28;20039;-74
2023/06/29 01:17:57;;;;;;;3.58;2.10;;;;;;;;;;5094139;28;20042;-74
2023/06/29 01:20:25;;;;;;;4.50;2.08;;;;;;;;;;5094229;28;20035;-74
2023/06/29 01:23:28;;;;;;;2.08;1.60;;;;;;;;;;5094002;28;20062;-74
2023/06/29 01:25:54;;;;;;;2.25;1.60;;;;;;;;;;5081745;28;20043;-74
2023/06/29 01:28:20;;;;;;;2.55;1.70;;;;;;;;;;5093904;28;20020;-74
2023/06/29 01:30:49;;;;;;;4.50;1.90;;;;;;;;;;5094197;28;20410;-74
2023/06/29 01:33:21;;;;;;;5.22;2.10;;;;;;;;;;5093942;28;20287;-74
2023/06/29 01:35:46;;;;;;;3.53;1.80;;;;;;;;;;5093706;28;20061;-74
2023/06/29 01:38:25;;;;;;;4.53;1.90;;;;;;;;;;5092326;28;20063;-73
2023/06/29 01:40:55;;;;;;;7.15;2.13;;;;;;;;;;5094504;28;20027;-74
2023/06/29 01:43:21;;;;;;;3.58;1.80;;;;;;;;;;5093781;28;20027;-74
2023/06/29 01:45:47;;;;;;;4.93;1.90;;;;;;;;;;5093612;28;20085;-73
2023/06/29 01:48:13;;;;;;;4.90;2.20;;;;;;;;;;5093693;28;20024;-73
2023/06/29 01:50:38;;;;;;;2.40;1.67;;;;;;;;;;5094090;28;20435;-74
2023/06/29 01:53:04;;;;;;;4.10;1.90;;;;;;;;;;5093975;28;20043;-74
2023/06/29 01:55:30;;;;;;;2.42;1.63;;;;;;;;;;5094164;28;20078;-74
2023/06/29 01:57:55;;;;;;;5.63;2.00;;;;;;;;;;5092675;28;20073;-74
2023/06/29 02:00:20;;;;;;;3.53;1.70;;;;;;;;;;5092431;28;20020;-74
2023/06/29 02:02:46;;;;;;;3.65;1.90;;;;;;;;;;5093705;28;20249;-75
2023/06/29 02:05:11;;;;;;;2.55;1.88;;;;;;;;;;5093542;28;20024;-73
2023/06/29 02:07:37;;;;;;;7.20;1.80;;;;;;;;;;5093372;28;20112;-73
2023/06/29 02:10:02;;;;;;;3.00;2.03;;;;;;;;;;5093615;28;20024;-74
2023/06/29 02:12:27;;;;;;;7.53;1.80;;;;;;;;;;5093077;28;20288;-73
2023/06/29 02:14:53;;;;;;;3.07;1.83;;;;;;;;;;5093605;28;20402;-74
2023/06/29 02:17:18;;;;;;;7.37;1.90;;;;;;;;;;5093434;28;20677;-74
2023/06/29 02:19:43;;;;;;;4.53;2.03;;;;;;;;;;5094128;28;20672;-74
2023/06/29 02:22:09;;;;;;;3.17;1.90;;;;;;;;;;5093672;28;20728;-74
2023/06/29 02:24:34;;;;;;;2.72;1.88;;;;;;;;;;5093501;28;20016;-74
2023/06/29 02:26:59;;;;;;;8.52;1.77;;;;;;;;;;5093273;28;20024;-73
2023/06/29 02:29:25;;;;;;;3.03;1.80;;;;;;;;;;5093073;28;20024;-74
2023/06/29 02:31:50;;;;;;;5.47;1.80;;;;;;;;;;5093174;28;20081;-74
2023/06/29 02:34:15;;;;;;;2.67;1.90;;;;;;;;;;5092916;28;20276;-75
2023/06/29 02:36:41;;;;;;;2.57;1.73;;;;;;;;;;5093187;28;20309;-74
2023/06/29 02:39:07;;;;;;;4.85;2.17;;;;;;;;;;5092841;28;20282;-73
2023/06/29 02:41:32;;;;;;;5.75;2.10;;;;;;;;;;5091556;28;20047;-74
2023/06/29 02:43:57;;;;;;;3.60;1.73;;;;;;;;;;5093171;28;20470;-74
2023/06/29 02:46:22;;;;;;;6.25;2.00;;;;;;;;;;5093110;28;20024;-74
2023/06/29 02:48:48;;;;;;;3.55;1.92;;;;;;;;;;5093093;28;20027;-74
2023/06/29 02:51:13;;;;;;;4.07;1.70;;;;;;;;;;5093081;28;20425;-74
2023/06/29 02:53:38;;;;;;;5.40;2.38;;;;;;;;;;5091549;28;20355;-74
2023/06/29 02:56:04;;;;;;;3.97;1.90;;;;;;;;;;5092878;28;20024;-74
2023/06/29 02:58:29;;;;;;;3.60;2.10;;;;;;;;;;5092918;28;20268;-74
2023/06/29 03:00:54;;;;;;;5.65;2.15;;;;;;;;;;5093149;28;20047;-74
2023/06/29 03:03:20;;;;;;;4.32;2.15;;;;;;;;;;5093246;28;20023;-74
2023/06/29 03:05:45;;;;;;;2.20;1.77;;;;;;;;;;5092977;28;20102;-74
2023/06/29 03:08:10;;;;;;;5.22;2.10;;;;;;;;;;5092887;28;20060;-74
2023/06/29 03:10:35;;;;;;;3.57;2.03;;;;;;;;;;5092648;28;20031;-74
2023/06/29 03:13:01;;;;;;;6.27;2.40;;;;;;;;;;5092502;28;20280;-74
2023/06/29 03:15:26;;;;;;;5.47;2.00;;;;;;;;;;5092579;28;20261;-74
2023/06/29 03:17:51;;;;;;;5.30;2.20;;;;;;;;;;5092645;28;20261;-73
2023/06/29 03:20:17;;;;;;;4.27;2.27;;;;;;;;;;5092512;28;20020;-73
2023/06/29 03:22:42;;;;;;;6.55;2.25;;;;;;;;;;5093094;28;20376;-74
2023/06/29 03:25:10;;;;;;;3.53;1.83;;;;;;;;;;5096183;28;20103;-74
2023/06/29 03:27:35;;;;;;;2.47;1.80;;;;;;;;;;5096351;28;20260;-74
2023/06/29 03:30:00;;;;;;;2.90;2.10;;;;;;;;;;5096417;28;20566;-75
2023/06/29 03:32:26;;;;;;;3.33;2.25;;;;;;;;;;5096237;28;20260;-74
2023/06/29 03:34:51;;;;;;;3.63;2.20;;;;;;;;;;5095988;28;20020;-73
2023/06/29 03:37:16;;;;;;;2.87;2.00;;;;;;;;;;5096239;28;20317;-73
2023/06/29 03:39:41;;;;;;;2.95;2.15;;;;;;;;;;5095893;28;20275;-73
2023/06/29 03:42:07;;;;;;;3.80;2.00;;;;;;;;;;5095893;28;20077;-74
2023/06/29 03:44:33;;;;;;;4.25;2.42;;;;;;;;;;5095760;28;20336;-74
2023/06/29 03:46:58;;;;;;;6.95;2.33;;;;;;;;;;5094405;28;20031;-74
2023/06/29 03:49:24;;;;;;;2.10;1.83;;;;;;;;;;5095757;28;20024;-74
2023/06/29 03:51:50;;;;;;;6.88;2.25;;;;;;;;;;5095964;28;20261;-74
2023/06/29 03:54:15;;;;;;;3.90;2.00;;;;;;;;;;5095734;28;20077;-74
2023/06/29 03:56:40;;;;;;;5.03;1.70;;;;;;;;;;5095753;28;20264;-73
2023/06/29 03:59:05;;;;;;;4.60;2.15;;;;;;;;;;5095523;28;20310;-74
2023/06/29 04:01:30;;;;;;;3.77;2.20;;;;;;;;;;5095621;28;20052;-75
2023/06/29 04:03:56;;;;;;;4.63;1.93;;;;;;;;;;5094243;28;20276;-74
2023/06/29 04:06:21;;;;;;;5.50;2.23;;;;;;;;;;5095478;28;20264;-74
2023/06/29 04:08:46;;;;;;;4.63;2.03;;;;;;;;;;5095190;28;20264;-73
2023/06/29 04:11:12;;;;;;;3.20;1.77;;;;;;;;;;5094589;28;20264;-73
2023/06/29 04:13:37;;;;;;;3.28;2.10;;;;;;;;;;5095538;28;20284;-74
2023/06/29 04:16:02;;;;;;;5.32;2.30;;;;;;;;;;5095501;28;20032;-74
2023/06/29 04:18:28;;;;;;;2.78;1.90;;;;;;;;;;5095095;28;20094;-74
2023/06/29 04:20:53;;;;;;;2.30;1.83;;;;;;;;;;5095372;28;20020;-74
2023/06/29 04:23:19;;;;;;;3.47;2.00;;;;;;;;;;5095223;28;20020;-74
2023/06/29 04:25:44;;;;;;;4.50;2.20;;;;;;;;;;5095544;28;20059;-74
2023/06/29 04:28:11;;;;;;;5.38;2.38;;;;;;;;;;5095057;28;20020;-73
2023/06/29 04:30:42;;;;;;;6.90;1.98;;;;;;;;;;5094953;28;20108;-74
2023/06/29 04:33:10;;;;;;;6.80;2.00;;;;;;;;;;5094829;28;20042;-74
2023/06/29 04:35:40;;;;;;;3.42;2.08;;;;;;;;;;5094874;28;20027;-74
2023/06/29 04:38:09;;;;;;;3.42;1.80;;;;;;;;;;5095046;28;20504;-74
2023/06/29 04:40:34;;;;;;;3.25;1.95;;;;;;;;;;5094874;28;20028;-73
2023/06/29 04:43:00;;;;;;;4.80;1.83;;;;;;;;;;5094727;28;20034;-74
2023/06/29 04:45:25;;;;;;;3.47;1.90;;;;;;;;;;5093406;28;20100;-74
2023/06/29 04:47:50;;;;;;;3.97;1.98;;;;;;;;;;5094527;28;20027;-74
2023/06/29 04:50:24;;;;;;;4.50;1.80;;;;;;;;;;5094883;28;20028;-74
2023/06/29 04:52:50;;;;;;;5.68;1.95;;;;;;;;;;5095299;28;20376;-74
2023/06/29 04:55:15;;;;;;;9.02;2.30;;;;;;;;;;5093837;28;20045;-73
2023/06/29 04:57:40;;;;;;;5.25;2.22;;;;;;;;;;5095092;28;20149;-73
2023/06/29 05:00:07;;;;;;;4.95;2.10;;;;;;;;;;5094514;28;20025;-73
2023/06/29 05:02:33;;;;;;;4.75;2.25;;;;;;;;;;5094261;28;20436;-73
2023/06/29 05:04:58;;;;;;;4.53;2.25;;;;;;;;;;5094294;28;20023;-74
2023/06/29 05:07:23;;;;;;;6.75;1.98;;;;;;;;;;5092911;28;20185;-74
2023/06/29 05:09:48;;;;;;;3.58;1.98;;;;;;;;;;5094798;28;20035;-74
2023/06/29 05:12:14;;;;;;;3.67;1.85;;;;;;;;;;5094282;28;20024;-74
2023/06/29 05:14:39;;;;;;;6.75;2.47;;;;;;;;;;5093957;28;20031;-74
2023/06/29 05:17:05;;;;;;;3.28;1.80;;;;;;;;;;5092758;28;20028;-74
2023/06/29 05:19:30;;;;;;;5.93;2.58;;;;;;;;;;5094367;28;20022;-74
2023/06/29 05:21:55;;;;;;;5.97;1.97;;;;;;;;;;5095018;28;20077;-74
2023/06/29 05:24:21;;;;;;;5.30;2.03;;;;;;;;;;5093940;28;20739;-73
2023/06/29 05:26:46;;;;;;;11.40;2.30;;;;;;;;;;5093813;28;20608;-72
2023/06/29 05:29:12;;;;;;;5.28;2.10;;;;;;;;;;5093922;28;20099;-72
2023/06/29 05:31:37;;;;;;;5.63;1.90;;;;;;;;;;5093675;28;20047;-73
2023/06/29 05:34:02;;;;;;;4.23;2.10;;;;;;;;;;5093717;28;20281;-73
2023/06/29 05:36:29;;;;;;;2.70;1.90;;;;;;;;;;5094005;28;20252;-74
2023/06/29 05:38:54;;;;;;;5.50;2.10;;;;;;;;;;5093964;28;20256;-74
2023/06/29 05:41:19;;;;;;;4.20;1.90;;;;;;;;;;5093980;28;20028;-73
2023/06/29 05:43:45;;;;;;;5.53;1.93;;;;;;;;;;5093679;28;20245;-73
2023/06/29 05:46:10;;;;;;;4.18;2.05;;;;;;;;;;5092190;28;20265;-74
2023/06/29 05:48:35;;;;;;;6.10;2.22;;;;;;;;;;5093391;28;20020;-73
2023/06/29 05:51:01;;;;;;;3.70;2.10;;;;;;;;;;5094300;28;20502;-74
2023/06/29 05:53:26;;;;;;;3.40;2.05;;;;;;;;;;5092603;28;20020;-74
2023/06/29 05:55:51;;;;;;;5.93;2.00;;;;;;;;;;5093398;28;20016;-74
2023/06/29 05:58:16;;;;;;;4.72;1.83;;;;;;;;;;5093355;28;20296;-74
2023/06/29 06:00:41;;;;;;;8.83;1.67;;;;;;;;;;5093943;28;20020;-74
2023/06/29 06:03:08;;;;;;;8.20;1.60;;;;;;;;;;5092199;28;20261;-74
2023/06/29 06:05:33;;;;;;;2.42;1.63;;;;;;;;;;5093332;28;20265;-74
2023/06/29 06:07:58;;;;;;;5.72;2.00;;;;;;;;;;5091893;28;20081;-74
2023/06/29 06:10:23;;;;;;;7.07;2.37;;;;;;;;;;5093944;28;20067;-74
2023/06/29 06:12:48;;;;;;;3.37;1.90;;;;;;;;;;5093694;28;20272;-74
2023/06/29 06:15:14;;;;;;;5.30;2.00;;;;;;;;;;5093236;28;20264;-74
2023/06/29 06:17:40;;;;;;;6.35;1.90;;;;;;;;;;5093055;28;20264;-74
2023/06/29 06:20:06;;;;;;;2.58;1.50;;;;;;;;;;5093446;28;20028;-74
2023/06/29 06:22:32;;;;;;;3.50;1.77;;;;;;;;;;5092231;28;20024;-74
2023/06/29 06:24:57;;;;;;;4.40;1.95;;;;;;;;;;5093074;28;20035;-74
2023/06/29 06:27:23;;;;;;;8.30;2.10;;;;;;;;;;5093363;28;20035;-74
2023/06/29 06:29:48;;;;;;;4.07;1.80;;;;;;;;;;5093575;28;20260;-74
2023/06/29 06:32:13;;;;;;;3.07;1.80;;;;;;;;;;5093633;28;20032;-74
2023/06/29 06:34:39;;;;;;;7.78;1.85;;;;;;;;;;5091745;28;20354;-74
2023/06/29 06:37:05;;;;;;;3.83;1.80;;;;;;;;;;5091688;28;20058;-73
2023/06/29 06:39:32;;;;;;;5.60;1.80;;;;;;;;;;5092945;28;20264;-74
2023/06/29 06:41:59;;;;;;;5.05;1.77;;;;;;;;;;5093147;28;20020;-74
2023/06/29 06:44:24;;;;;;;2.95;1.70;;;;;;;;;;5092922;28;20016;-74
2023/06/29 06:46:49;;;;;;;3.60;1.80;;;;;;;;;;5092888;28;20483;-74
2023/06/29 06:49:15;;;;;;;12.67;2.00;;;;;;;;;;5092672;28;20152;-74
2023/06/29 06:51:40;;;;;;;2.43;1.70;;;;;;;;;;5093739;28;20268;-74
2023/06/29 06:54:05;;;;;;;2.90;1.70;;;;;;;;;;5092789;28;20314;-74
2023/06/29 06:56:31;;;;;;;2.53;1.63;;;;;;;;;;5092893;28;20043;-74
2023/06/29 06:58:56;;;;;;;4.25;1.70;;;;;;;;;;5095699;28;20260;-74
2023/06/29 07:01:22;;;;;;;5.37;1.90;;;;;;;;;;5096925;28;20020;-74
2023/06/29 07:03:47;;;;;;;4.80;1.63;;;;;;;;;;5096934;28;20275;-74
2023/06/29 07:06:13;;;;;;;2.60;1.75;;;;;;;;;;5096757;28;20031;-74
2023/06/29 07:08:38;;;;;;;5.90;1.83;;;;;;;;;;5096500;28;20028;-74
2023/06/29 07:11:03;;;;;;;5.23;1.70;;;;;;;;;;5096510;28;20256;-73
2023/06/29 07:13:28;;;;;;;2.55;1.70;;;;;;;;;;5096576;28;20290;-74
2023/06/29 07:15:55;;;;;;;9.00;1.60;;;;;;;;;;5096437;28;20036;-74
2023/06/29 07:18:20;;;;;;;3.50;1.60;;;;;;;;;;5096172;28;20275;-73
2023/06/29 07:20:46;;;;;;;2.58;1.50;;;;;;;;;;5096510;28;20024;-74
2023/06/29 07:23:11;;;;;;;6.47;1.70;;;;;;;;;;5096524;28;20073;-74
2023/06/29 07:25:36;;;;;;;9.73;1.90;;;;;;;;;;5096534;28;20024;-74
2023/06/29 07:28:01;;;;;;;7.57;1.60;;;;;;;;;;5096355;28;20031;-74
2023/06/29 07:30:27;;;;;;;5.55;1.50;;;;;;;;;;5096477;28;20264;-74
2023/06/29 07:32:52;;;;;;;1.77;1.23;;;;;;;;;;5096061;28;20107;-73
2023/06/29 07:35:17;;;;;;;2.67;1.40;;;;;;;;;;5096023;28;20264;-73
2023/06/29 07:37:42;;;;;;;3.22;1.60;;;;;;;;;;5095880;28;20264;-73
2023/06/29 07:40:09;;;;;;;3.50;1.47;;;;;;;;;;5096173;28;20471;-73
2023/06/29 07:42:34;;;;;;;3.72;1.30;;;;;;;;;;5094566;28;20747;-73
2023/06/29 07:44:59;;;;;;;4.88;1.42;;;;;;;;;;5095851;28;20099;-73
2023/06/29 07:47:24;;;;;;;3.17;1.60;;;;;;;;;;5095734;28;20020;-73
2023/06/29 07:49:50;;;;;;;2.63;1.60;;;;;;;;;;5095927;28;20256;-74
2023/06/29 07:52:15;;;;;;;5.18;1.55;;;;;;;;;;5095779;28;20252;-73
2023/06/29 07:54:41;;;;;;;4.45;1.50;;;;;;;;;;5095841;28;20069;-74
2023/06/29 07:57:08;;;;;;;3.45;1.30;;;;;;;;;;5094585;28;20054;-73
2023/06/29 07:59:33;;;;;;;2.20;1.50;;;;;;;;;;5095563;28;20079;-73
2023/06/29 08:01:58;;;;;;;4.50;1.33;;;;;;;;;;5095716;28;20028;-73
2023/06/29 08:04:23;;;;;;;6.57;1.20;;;;;;;;;;5095861;28;20252;-73
2023/06/29 08:06:49;;;;;;;5.18;1.40;;;;;;;;;;5095742;28;20325;-74
2023/06/29 08:09:15;;;;;;;1.77;1.13;;;;;;;;;;5094885;28;20032;-74
2023/06/29 08:11:40;;;;;;;3.22;1.30;;;;;;;;;;5095336;28;20024;-74
2023/06/29 08:14:05;;;;;;;5.90;1.33;;;;;;;;;;5095086;28;20020;-73
2023/06/29 08:16:30;;;;;;;3.30;1.40;;;;;;;;;;5095248;28;20248;-73
2023/06/29 08:18:56;;;;;;;3.97;1.37;;;;;;;;;;5095462;28;20533;-73
2023/06/29 08:21:21;;;;;;;6.93;1.65;;;;;;;;;;5096248;28;20759;-73
2023/06/29 08:23:49;;;;;;;3.53;1.17;;;;;;;;;;5094622;28;20063;-72
2023/06/29 08:26:15;;;;;;;3.83;1.50;;;;;;;;;;5094366;28;20257;-73
2023/06/29 08:28:40;;;;;;;5.28;1.23;;;;;;;;;;5095939;28;20107;-73
2023/06/29 08:31:05;;;;;;;1.80;1.10;;;;;;;;;;5096218;28;20048;-73
2023/06/29 08:33:31;;;;;;;3.17;1.27;;;;;;;;;;5095398;28;20028;-72
2023/06/29 08:35:56;;;;;;;2.17;1.37;;;;;;;;;;5095527;28;20268;-73
2023/06/29 08:38:21;;;;;;;3.23;1.20;;;;;;;;;;5095903;28;20282;-74
2023/06/29 08:40:47;;;;;;;2.53;1.00;;;;;;;;;;5095176;28;20253;-72
2023/06/29 08:43:15;;;;;;;3.47;1.20;;;;;;;;;;5094818;28;20257;-73
2023/06/29 08:45:40;;;;;;;3.63;1.40;;;;;;;;;;5094939;28;20394;-73
2023/06/29 08:48:06;;;;;;;2.35;1.30;;;;;;;;;;5094660;28;20024;-73
2023/06/29 08:50:34;;;;;;;2.35;1.30;;;;;;;;;;5095208;28;20020;-73
2023/06/29 08:53:00;;;;;;;5.10;1.40;;;;;;;;;;5094615;28;20422;-73
2023/06/29 08:55:25;;;;;;;3.78;1.33;;;;;;;;;;5093721;28;20115;-73
2023/06/29 08:57:53;;;;;;;2.72;1.40;;;;;;;;;;5094484;28;20490;-76
2023/06/29 09:00:19;;;;;;;3.40;1.40;;;;;;;;;;5093118;28;20024;-73
2023/06/29 09:02:45;;;;;;;2.47;1.27;;;;;;;;;;5094659;28;20031;-73
2023/06/29 09:05:13;;;;;;;2.75;1.20;;;;;;;;;;5093150;28;20020;-73
2023/06/29 09:07:40;;;;;;;2.15;1.13;;;;;;;;;;5092782;28;20490;-73
2023/06/29 09:10:08;;;;;;;2.53;1.30;;;;;;;;;;5094910;28;20135;-74
2023/06/29 09:12:33;;;;;;;4.72;1.15;;;;;;;;;;5094148;28;20111;-72
2023/06/29 09:14:59;;;;;;;3.57;1.30;;;;;;;;;;5094181;28;20107;-73
2023/06/29 09:17:26;;;;;;;3.15;1.20;;;;;;;;;;5094224;28;20280;-73
2023/06/29 09:19:56;;;;;;;2.10;1.15;;;;;;;;;;5093598;28;20099;-73
2023/06/29 09:22:23;;;;;;;3.38;1.40;;;;;;;;;;5093838;28;20058;-73
2023/06/29 09:24:48;;;;;;;3.58;1.50;;;;;;;;;;5093984;28;20479;-73
2023/06/29 09:27:14;;;;;;;4.07;1.20;;;;;;;;;;5093899;28;20113;-73
2023/06/29 09:29:39;;;;;;;4.13;1.40;;;;;;;;;;5094073;28;20065;-73
2023/06/29 09:32:12;;;;;;;3.17;1.38;;;;;;;;;;5092549;28;20035;-73
2023/06/29 09:34:43;;;;;;;2.37;1.10;;;;;;;;;;5094046;28;20111;-73
2023/06/29 09:37:15;;;;;;;2.03;1.30;;;;;;;;;;5094002;28;20020;-73
2023/06/29 09:39:56;;;;;;;1.77;1.20;;;;;;;;;;5093929;28;20102;-73
2023/06/29 09:42:23;;;;;;;2.58;1.50;;;;;;;;;;5094145;28;20051;-73
2023/06/29 09:44:48;;;;;;;2.03;1.25;;;;;;;;;;5094179;28;20028;-73
2023/06/29 09:47:13;;;;;;;8.07;1.42;;;;;;;;;;5092713;28;20016;-73
2023/06/29 09:49:48;;;;;;;2.80;1.30;;;;;;;;;;5094030;28;20049;-73
2023/06/29 09:52:14;;;;;;;1.90;1.30;;;;;;;;;;5094148;28;20836;-73
2023/06/29 09:54:39;;;;;;;2.08;1.20;;;;;;;;;;5093594;28;20028;-73
2023/06/29 09:57:07;;;;;;;3.27;1.20;;;;;;;;;;5094564;28;20046;-73
2023/06/29 09:59:34;;;;;;;2.42;1.40;;;;;;;;;;5094835;28;20335;-74
2023/06/29 10:02:00;;;;;;;4.65;1.33;;;;;;;;;;5094667;28;20081;-73
2023/06/29 10:04:25;;;;;;;3.20;1.45;;;;;;;;;;5093714;28;20020;-73
2023/06/29 10:06:59;;;;;;;3.88;1.40;;;;;;;;;;5092084;28;20024;-73
2023/06/29 10:09:25;;;;;;;4.60;1.40;;;;;;;;;;5093055;28;20035;-74
2023/06/29 10:11:52;;;;;;;6.63;1.50;;;;;;;;;;5093488;28;20032;-74
2023/06/29 10:14:20;;;;;;;5.43;1.40;;;;;;;;;;5093452;28;20055;-73
2023/06/29 10:16:52;;;;;;;5.05;1.60;;;;;;;;;;5093260;28;20035;-74
2023/06/29 10:19:21;;;;;;;2.60;1.50;;;;;;;;;;5093173;28;20035;-74
2023/06/29 10:21:56;;;;;;;6.40;1.60;;;;;;;;;;5093349;28;20104;-73
2023/06/29 10:24:25;;;;;;;2.65;1.45;;;;;;;;;;5093558;28;20065;-74
2023/06/29 10:26:51;;;;;;;1.55;1.27;;;;;;;;;;5093322;28;20492;-73
2023/06/29 10:29:17;;;;;;;1.95;1.35;;;;;;;;;;5093288;28;20032;-74
2023/06/29 10:31:48;;;;;;;4.17;1.33;;;;;;;;;;5093964;28;20020;-73
2023/06/29 10:34:14;;;;;;;1.95;1.45;;;;;;;;;;5096278;28;20789;-73
2023/06/29 10:36:49;;;;;;;2.85;1.50;;;;;;;;;;5095823;28;20024;-73
2023/06/29 10:39:43;;;;;;;2.15;1.48;;;;;;;;;;5097167;28;20186;-73
2023/06/29 10:42:32;;;;;;;3.15;1.50;;;;;;;;;;5095907;28;20024;-74
2023/06/29 10:44:58;;;;;;;3.55;1.40;;;;;;;;;;5086759;28;20148;-74
2023/06/29 10:47:27;;;;;;;6.10;1.60;;;;;;;;;;5097645;28;20050;-74
2023/06/29 10:50:11;;;;;;;2.17;1.33;;;;;;;;;;5097020;28;20036;-74
2023/06/29 10:52:42;;;;;;;4.07;1.90;;;;;;;;;;5096913;28;20502;-74
2023/06/29 10:55:14;;;;;;;2.40;1.48;;;;;;;;;;5096803;28;20052;-74
2023/06/29 10:57:41;;;;;;;3.17;1.40;;;;;;;;;;5096937;28;20091;-74
2023/06/29 11:00:07;;;;;;;1.95;1.33;;;;;;;;;;5096805;28;20019;-74
2023/06/29 11:02:34;;;;;;;2.10;1.40;;;;;;;;;;5095453;28;20569;-74
2023/06/29 11:04:59;;;;;;;3.28;1.60;;;;;;;;;;5096958;28;20024;-74
2023/06/29 11:07:25;;;;;;;2.10;1.40;;;;;;;;;;5096615;28;20069;-74
2023/06/29 11:09:59;;;;;;;2.55;1.40;;;;;;;;;;5096402;28;20035;-74
2023/06/29 11:12:25;;;;;;;4.60;1.30;;;;;;;;;;5096758;28;20027;-74
2023/06/29 11:14:51;;;;;;;3.23;1.40;;;;;;;;;;5096315;28;20028;-74
2023/06/29 11:17:17;;;;;;;4.20;1.30;;;;;;;;;;5096708;28;20304;-73
2023/06/29 11:19:45;;;;;;;2.03;1.30;;;;;;;;;;5096335;28;20051;-73
2023/06/29 11:22:10;;;;;;;2.67;1.35;;;;;;;;;;5096281;28;20016;-74
2023/06/29 11:24:36;;;;;;;3.67;1.80;;;;;;;;;;5096259;28;20027;-74
2023/06/29 11:27:02;;;;;;;3.33;1.20;;;;;;;;;;5096231;28;20256;-73
2023/06/29 11:29:28;;;;;;;2.60;1.63;;;;;;;;;;5094909;28;20028;-73
2023/06/29 11:31:53;;;;;;;4.10;1.42;;;;;;;;;;5096371;28;20024;-74
2023/06/29 11:34:18;;;;;;;3.83;1.30;;;;;;;;;;5096038;28;20386;-73
2023/06/29 11:36:44;;;;;;;4.30;1.40;;;;;;;;;;5095473;28;20315;-73
2023/06/29 11:39:11;;;;;;;1.65;1.27;;;;;;;;;;5095917;28;20066;-74
2023/06/29 11:41:38;;;;;;;3.28;1.38;;;;;;;;;;5096026;28;20046;-74
2023/06/29 11:44:03;;;;;;;2.83;1.30;;;;;;;;;;5094846;28;20024;-73
2023/06/29 11:46:35;;;;;;;2.60;1.50;;;;;;;;;;5095636;28;20024;-73
2023/06/29 11:49:04;;;;;;;2.10;1.48;;;;;;;;;;5096009;28;20035;-73
2023/06/29 11:51:30;;;;;;;1.67;1.45;;;;;;;;;;5095779;28;20027;-74
2023/06/29 11:53:56;;;;;;;2.65;1.52;;;;;;;;;;5095661;28;20031;-73
2023/06/29 11:56:24;;;;;;;5.00;1.50;;;;;;;;;;5095543;28;20028;-74
2023/06/29 11:58:50;;;;;;;3.08;1.50;;;;;;;;;;5095512;28;20577;-73
2023/06/29 12:01:15;;;;;;;5.57;1.40;;;;;;;;;;5095867;28;20063;-73
2023/06/29 12:03:41;;;;;;;3.05;1.40;;;;;;;;;;5096065;28;20018;-73
2023/06/29 12:06:06;;;;;;;7.35;1.60;;;;;;;;;;5096441;28;20479;-73
2023/06/29 12:08:39;;;;;;;3.87;1.60;;;;;;;;;;5096360;28;20035;-74
2023/06/29 12:11:05;;;;;;;3.27;1.43;;;;;;;;;;5096178;28;20265;-73
2023/06/29 12:13:30;;;;;;;2.35;1.55;;;;;;;;;;5096638;28;20027;-74
2023/06/29 12:16:01;;;;;;;3.00;1.40;;;;;;;;;;5095281;28;20028;-74
2023/06/29 12:18:29;;;;;;;4.03;1.90;;;;;;;;;;5094556;28;20268;-74
2023/06/29 12:21:00;;;;;;;2.22;1.50;;;;;;;;;;5096740;28;20052;-74
2023/06/29 12:23:25;;;;;;;2.28;1.58;;;;;;;;;;5095479;28;20471;-74
2023/06/29 12:25:51;;;;;;;3.00;1.60;;;;;;;;;;5094997;28;20028;-74
2023/06/29 12:28:16;;;;;;;3.20;1.70;;;;;;;;;;5094826;28;20636;-73
2023/06/29 12:30:42;;;;;;;3.05;1.38;;;;;;;;;;5095003;28;20020;-74
2023/06/29 12:33:09;;;;;;;2.90;1.50;;;;;;;;;;5095438;28;20030;-73
2023/06/29 12:35:34;;;;;;;2.15;1.60;;;;;;;;;;5094983;28;20084;-74
2023/06/29 12:37:59;;;;;;;3.03;1.40;;;;;;;;;;5097229;28;20035;-73
2023/06/29 12:40:25;;;;;;;2.30;1.30;;;;;;;;;;5096111;28;20257;-71
2023/06/29 12:42:51;;;;;;;2.05;1.50;;;;;;;;;;5095387;28;20109;-71
2023/06/29 12:45:17;;;;;;;2.22;1.40;;;;;;;;;;5094869;28;20382;-70
2023/06/29 12:47:42;;;;;;;3.90;1.50;;;;;;;;;;5094505;28;20107;-70
2023/06/29 12:50:08;;;;;;;3.25;1.70;;;;;;;;;;5094456;28;20471;-71
2023/06/29 12:52:33;;;;;;;2.13;1.45;;;;;;;;;;5094478;28;20108;-70
2023/06/29 12:54:59;;;;;;;5.35;1.63;;;;;;;;;;5094196;28;20031;-71
2023/06/29 12:57:30;;;;;;;4.63;1.60;;;;;;;;;;5094371;28;20073;-71
2023/06/29 12:59:56;;;;;;;2.08;1.45;;;;;;;;;;5094607;28;20383;-70
2023/06/29 13:02:22;;;;;;;1.33;1.17;;;;;;;;;;5094603;28;20048;-70
2023/06/29 13:04:48;;;;;;;4.47;1.58;;;;;;;;;;5094238;28;20060;-71
2023/06/29 13:07:17;;;;;;;2.08;1.42;;;;;;;;;;5094472;28;20488;-71
2023/06/29 13:09:47;;;;;;;4.20;1.63;;;;;;;;;;5094123;28;20111;-71
2023/06/29 13:12:14;;;;;;;4.35;1.38;;;;;;;;;;5094168;28;20028;-70
2023/06/29 13:14:41;;;;;;;2.75;1.55;;;;;;;;;;5093892;28;20031;-71
2023/06/29 13:17:07;;;;;;;3.30;1.50;;;;;;;;;;5093904;28;20031;-71
2023/06/29 13:19:33;;;;;;;2.65;1.33;;;;;;;;;;5093973;28;20139;-71
2023/06/29 13:21:58;;;;;;;2.08;1.35;;;;;;;;;;5092673;28;20063;-70
2023/06/29 13:24:23;;;;;;;2.42;1.38;;;;;;;;;;5094175;28;20050;-70
2023/06/29 13:26:50;;;;;;;3.63;1.40;;;;;;;;;;5092510;28;20486;-71
2023/06/29 13:29:15;;;;;;;2.22;1.50;;;;;;;;;;5093766;28;20325;-71
2023/06/29 13:31:40;;;;;;;2.13;1.33;;;;;;;;;;5093830;28;20432;-71
2023/06/29 13:34:06;;;;;;;2.05;1.33;;;;;;;;;;5093698;28;20115;-71
2023/06/29 13:36:31;;;;;;;1.75;1.20;;;;;;;;;;5093619;28;20048;-71
2023/06/29 13:38:57;;;;;;;2.35;1.40;;;;;;;;;;5093877;28;20065;-71
2023/06/29 13:41:36;;;;;;;1.87;1.40;;;;;;;;;;5093563;28;20107;-71
2023/06/29 13:44:03;;;;;;;3.47;1.50;;;;;;;;;;5093596;28;20107;-70
2023/06/29 13:46:28;;;;;;;3.45;1.70;;;;;;;;;;5093950;28;20035;-70
2023/06/29 13:48:53;;;;;;;3.27;1.50;;;;;;;;;;5093502;28;20016;-71
2023/06/29 13:51:19;;;;;;;2.07;1.30;;;;;;;;;;5093395;28;20046;-71
2023/06/29 13:53:44;;;;;;;2.53;1.53;;;;;;;;;;5093157;28;20355;-70
2023/06/29 13:56:09;;;;;;;3.63;1.23;;;;;;;;;;5093419;28;20288;-71
2023/06/29 13:58:34;;;;;;;2.47;1.40;;;;;;;;;;5093176;28;20024;-71
2023/06/29 14:01:00;;;;;;;2.53;1.40;;;;;;;;;;5093269;28;20240;-70
2023/06/29 14:03:25;;;;;;;2.22;1.42;;;;;;;;;;5093437;28;20070;-71
2023/06/29 14:05:51;;;;;;;2.53;1.40;;;;;;;;;;5093048;28;20028;-71
2023/06/29 14:08:17;;;;;;;3.83;1.40;;;;;;;;;;5093020;28;20052;-71
2023/06/29 14:10:42;;;;;;;2.27;1.20;;;;;;;;;;5093370;28;20034;-71
2023/06/29 14:13:07;;;;;;;4.13;1.60;;;;;;;;;;5093449;28;20261;-71
2023/06/29 14:15:33;;;;;;;2.33;1.30;;;;;;;;;;5093258;28;20020;-71
2023/06/29 14:17:58;;;;;;;2.90;1.50;;;;;;;;;;5093060;28;20077;-71
2023/06/29 14:20:23;;;;;;;4.40;1.50;;;;;;;;;;5092961;28;20051;-71
2023/06/29 14:22:48;;;;;;;3.70;1.50;;;;;;;;;;5093044;28;20020;-71
2023/06/29 14:25:14;;;;;;;1.97;1.40;;;;;;;;;;5093032;28;20038;-70
2023/06/29 14:27:39;;;;;;;4.47;1.20;;;;;;;;;;5091628;28;20418;-71
2023/06/29 14:30:05;;;;;;;2.10;0.97;;;;;;;;;;5093045;28;20375;-71
2023/06/29 14:32:30;;;;;;;2.58;1.45;;;;;;;;;;5093208;28;20024;-70
2023/06/29 14:34:55;;;;;;;3.73;1.50;;;;;;;;;;5093030;28;20024;-71
2023/06/29 14:37:21;;;;;;;6.40;1.33;;;;;;;;;;5092859;28;20093;-71
2023/06/29 14:39:46;;;;;;;3.65;1.38;;;;;;;;;;5091562;28;20304;-71